Time;durP1;ratioP1;P1;durP2;ratioP2;P2;SDS_P1;SDS_P2;PMS_P1;PMS_P2;Temp;Humidity;BMP_temperature;BMP_pressure;BME280_temperature;BME280_humidity;BME280_pressure;Samples;Min_cycle;Max_cycle;Signal;HPM_P1;HPM_P2
2023/03/17 00:00:13;;;;;;;2.63;2.38;;;19.10;71.90;;;;;;5065073;28;20021;-75
2023/03/17 00:02:41;;;;;;;3.38;2.40;;;19.10;72.00;;;;;;5047772;28;20382;-75
2023/03/17 00:05:17;;;;;;;2.97;2.33;;;19.10;72.10;;;;;;5053100;28;20056;-75
2023/03/17 00:07:45;;;;;;;3.17;2.60;;;19.10;72.20;;;;;;5051346;28;20090;-75
2023/03/17 00:10:18;;;;;;;3.35;2.50;;;19.10;72.20;;;;;;5051670;28;20021;-75
2023/03/17 00:12:44;;;;;;;2.53;2.33;;;19.00;72.20;;;;;;5051383;28;20368;-75
2023/03/17 00:15:11;;;;;;;2.75;2.55;;;19.00;72.30;;;;;;5051368;28;20032;-75
2023/03/17 00:17:36;;;;;;;2.67;2.40;;;19.00;72.30;;;;;;5050989;28;20025;-75
2023/03/17 00:20:04;;;;;;;3.65;2.45;;;19.00;72.40;;;;;;5051027;28;20548;-75
2023/03/17 00:22:30;;;;;;;3.28;2.50;;;19.00;72.50;;;;;;5052507;28;20400;-75
2023/03/17 00:24:55;;;;;;;3.42;2.22;;;19.00;72.50;;;;;;5052596;28;20029;-75
2023/03/17 00:27:21;;;;;;;2.83;2.30;;;19.00;72.60;;;;;;5051205;28;20029;-75
2023/03/17 00:29:47;;;;;;;2.53;2.33;;;19.00;72.80;;;;;;5050967;28;20021;-75
2023/03/17 00:32:16;;;;;;;3.90;2.90;;;19.00;72.60;;;;;;5051291;28;20013;-75
2023/03/17 00:34:43;;;;;;;2.28;2.17;;;18.90;72.80;;;;;;5051039;28;20028;-75
2023/03/17 00:37:12;;;;;;;4.53;2.35;;;18.90;72.90;;;;;;5051171;28;20021;-75
2023/03/17 00:39:38;;;;;;;2.50;2.30;;;18.90;72.90;;;;;;5052140;28;20052;-75
2023/03/17 00:42:05;;;;;;;2.35;2.15;;;18.90;72.80;;;;;;5050951;28;20064;-75
2023/03/17 00:44:32;;;;;;;6.90;2.80;;;18.90;72.90;;;;;;5051973;28;20028;-75
2023/03/17 00:46:57;;;;;;;2.60;2.40;;;18.90;73.10;;;;;;5052186;28;20049;-75
2023/03/17 00:49:23;;;;;;;2.60;2.40;;;18.90;73.00;;;;;;5051040;28;20090;-75
2023/03/17 00:51:49;;;;;;;2.72;2.30;;;18.90;73.10;;;;;;5050537;28;20535;-75
2023/03/17 00:54:15;;;;;;;4.70;2.30;;;18.80;73.10;;;;;;5050995;28;20449;-75
2023/03/17 00:56:41;;;;;;;2.70;2.50;;;18.80;73.40;;;;;;5050711;28;20025;-75
2023/03/17 00:59:25;;;;;;;2.50;2.30;;;18.80;73.30;;;;;;5050693;28;20099;-75
2023/03/17 01:01:51;;;;;;;2.45;2.25;;;18.80;73.30;;;;;;5050743;28;20070;-75
2023/03/17 01:04:18;;;;;;;4.55;2.47;;;18.80;73.40;;;;;;5050970;28;20025;-75
2023/03/17 01:06:43;;;;;;;2.53;2.20;;;18.80;73.50;;;;;;5050837;28;20134;-75
2023/03/17 01:09:15;;;;;;;2.15;1.98;;;18.80;73.50;;;;;;5050976;28;20104;-75
2023/03/17 01:11:41;;;;;;;2.08;1.92;;;18.80;73.60;;;;;;5050797;28;20059;-75
2023/03/17 01:14:08;;;;;;;2.85;2.13;;;18.80;73.70;;;;;;5050499;28;20075;-75
2023/03/17 01:16:34;;;;;;;3.33;2.30;;;18.70;73.60;;;;;;5050597;28;20447;-76
2023/03/17 01:19:00;;;;;;;2.47;2.13;;;18.70;73.70;;;;;;5050647;28;20059;-75
2023/03/17 01:21:25;;;;;;;3.60;2.22;;;18.80;73.70;;;;;;5051959;28;20028;-75
2023/03/17 01:23:52;;;;;;;2.75;2.28;;;18.80;73.70;;;;;;5033908;28;20029;-75
2023/03/17 01:26:17;;;;;;;2.38;2.17;;;18.80;73.70;;;;;;5050492;28;20021;-75
2023/03/17 01:28:44;;;;;;;4.63;2.22;;;18.70;73.70;;;;;;5050313;28;20039;-75
2023/03/17 01:31:09;;;;;;;2.60;2.10;;;18.70;73.60;;;;;;5053726;28;20055;-75
2023/03/17 01:33:35;;;;;;;2.67;2.17;;;18.70;73.70;;;;;;5054543;28;20562;-75
2023/03/17 01:36:01;;;;;;;3.03;2.35;;;18.70;73.70;;;;;;5042039;28;20067;-75
2023/03/17 01:38:26;;;;;;;1.92;1.75;;;18.70;73.70;;;;;;5035807;28;20037;-75
2023/03/17 01:40:53;;;;;;;2.88;2.38;;;18.70;73.70;;;;;;5035410;28;20030;-75
2023/03/17 01:43:23;;;;;;;2.60;2.40;;;18.70;73.70;;;;;;5067058;28;20034;-75
2023/03/17 01:46:17;;;;;;;2.80;2.15;;;18.70;73.70;;;;;;5067192;28;20465;-75
2023/03/17 01:48:55;;;;;;;2.42;2.22;;;18.70;73.60;;;;;;5035458;28;20021;-75
2023/03/17 01:51:32;;;;;;;2.33;2.10;;;18.70;73.70;;;;;;5035286;28;20052;-75
2023/03/17 01:53:59;;;;;;;2.35;2.15;;;18.60;73.60;;;;;;5035192;28;20052;-75
2023/03/17 01:56:25;;;;;;;2.10;1.90;;;18.70;73.70;;;;;;5050320;28;20064;-75
2023/03/17 01:58:51;;;;;;;1.85;1.75;;;18.70;73.70;;;;;;5035364;28;20053;-76
2023/03/17 02:01:19;;;;;;;2.10;1.90;;;18.60;73.70;;;;;;5050475;28;20429;-75
2023/03/17 02:03:45;;;;;;;2.70;2.03;;;18.70;73.80;;;;;;5050104;28;20029;-76
2023/03/17 02:06:11;;;;;;;2.80;2.20;;;18.60;73.70;;;;;;5064460;28;20025;-76
2023/03/17 02:08:37;;;;;;;2.75;2.03;;;18.70;73.80;;;;;;5070460;28;20120;-76
2023/03/17 02:11:03;;;;;;;2.38;1.95;;;18.60;73.80;;;;;;5054591;28;20025;-76
2023/03/17 02:13:29;;;;;;;4.15;2.00;;;18.60;73.70;;;;;;5070376;28;20374;-76
2023/03/17 02:15:55;;;;;;;2.00;1.80;;;18.60;73.70;;;;;;5087205;28;20032;-76
2023/03/17 02:18:22;;;;;;;2.67;1.92;;;18.60;73.80;;;;;;5086995;28;20017;-76
2023/03/17 02:20:48;;;;;;;1.88;1.70;;;18.60;73.90;;;;;;5070097;28;20366;-76
2023/03/17 02:23:21;;;;;;;5.30;2.00;;;18.50;73.90;;;;;;5054719;28;20070;-75
2023/03/17 02:25:48;;;;;;;2.25;2.05;;;18.50;74.10;;;;;;5054284;28;20083;-75
2023/03/17 02:28:15;;;;;;;1.88;1.77;;;18.60;74.00;;;;;;5069830;28;20032;-75
2023/03/17 02:30:42;;;;;;;2.10;1.90;;;18.50;74.10;;;;;;5086637;28;20013;-75
2023/03/17 02:33:08;;;;;;;2.83;1.90;;;18.50;74.00;;;;;;5070047;28;20025;-75
2023/03/17 02:35:34;;;;;;;3.22;1.95;;;18.50;74.10;;;;;;5070005;28;20013;-75
2023/03/17 02:37:59;;;;;;;1.90;1.80;;;18.50;74.10;;;;;;5053274;28;20059;-75
2023/03/17 02:40:26;;;;;;;2.85;2.17;;;18.50;74.20;;;;;;5052948;28;20032;-75
2023/03/17 02:42:52;;;;;;;2.00;1.90;;;18.50;74.20;;;;;;5052527;28;20599;-75
2023/03/17 02:45:18;;;;;;;2.25;1.80;;;18.50;74.10;;;;;;5053277;28;20404;-75
2023/03/17 02:47:44;;;;;;;1.92;1.73;;;18.50;74.20;;;;;;5053021;28;20021;-75
2023/03/17 02:50:20;;;;;;;2.35;1.73;;;18.50;75.20;;;;;;5052896;28;20052;-75
2023/03/17 02:52:45;;;;;;;1.90;1.80;;;18.50;74.20;;;;;;5052899;28;20029;-75
2023/03/17 02:55:11;;;;;;;2.25;1.95;;;18.50;74.50;;;;;;5052687;28;20428;-75
2023/03/17 02:57:36;;;;;;;3.85;1.95;;;18.50;74.20;;;;;;5054074;28;20077;-75
2023/03/17 03:00:02;;;;;;;1.80;1.70;;;18.50;74.20;;;;;;5052923;28;20029;-75
2023/03/17 03:02:28;;;;;;;1.98;1.75;;;18.50;74.40;;;;;;5052769;28;20032;-75
2023/03/17 03:04:55;;;;;;;1.75;1.65;;;18.40;74.20;;;;;;5035910;28;20087;-75
2023/03/17 03:07:21;;;;;;;2.35;2.05;;;18.40;74.30;;;;;;5053803;28;20428;-75
2023/03/17 03:09:47;;;;;;;2.30;1.70;;;18.40;74.30;;;;;;5053724;28;20100;-75
2023/03/17 03:12:13;;;;;;;2.38;1.85;;;18.40;74.40;;;;;;5053806;28;20108;-75
2023/03/17 03:14:38;;;;;;;2.00;1.73;;;18.40;74.30;;;;;;5069282;28;20050;-75
2023/03/17 03:17:04;;;;;;;1.80;1.70;;;18.40;74.30;;;;;;5069058;28;20063;-75
2023/03/17 03:19:30;;;;;;;1.88;1.65;;;18.40;74.30;;;;;;5053755;28;20397;-76
2023/03/17 03:21:55;;;;;;;3.13;1.65;;;18.40;74.30;;;;;;5053485;28;20029;-75
2023/03/17 03:24:21;;;;;;;2.42;1.83;;;18.40;74.40;;;;;;5068554;28;20440;-75
2023/03/17 03:26:47;;;;;;;1.88;1.77;;;18.40;74.50;;;;;;5051220;28;20412;-76
2023/03/17 03:29:13;;;;;;;1.70;1.60;;;18.40;74.70;;;;;;5051078;28;20017;-76
2023/03/17 03:31:38;;;;;;;3.55;2.05;;;18.40;74.50;;;;;;5052202;28;20632;-76
2023/03/17 03:34:04;;;;;;;2.22;1.67;;;18.40;74.60;;;;;;5051065;28;20024;-75
2023/03/17 03:36:29;;;;;;;1.50;1.40;;;18.40;74.70;;;;;;5052524;28;20029;-76
2023/03/17 03:38:56;;;;;;;3.78;1.63;;;18.40;74.70;;;;;;5053566;28;20107;-75
2023/03/17 03:41:21;;;;;;;1.60;1.50;;;18.30;74.70;;;;;;5030729;28;20412;-75
2023/03/17 03:43:47;;;;;;;2.75;1.80;;;18.30;74.70;;;;;;5033909;28;20026;-75
2023/03/17 03:46:14;;;;;;;2.00;1.73;;;18.40;74.80;;;;;;5065875;28;20485;-75
2023/03/17 03:48:39;;;;;;;2.40;1.58;;;18.30;74.70;;;;;;5065553;28;20021;-75
2023/03/17 03:51:05;;;;;;;5.22;1.60;;;18.30;74.70;;;;;;5080359;28;20397;-76
2023/03/17 03:53:31;;;;;;;3.50;1.55;;;18.40;74.70;;;;;;5052663;28;20021;-75
2023/03/17 03:55:57;;;;;;;1.73;1.63;;;18.30;74.70;;;;;;5052124;28;20055;-75
2023/03/17 03:58:22;;;;;;;1.60;1.50;;;18.30;74.80;;;;;;5052585;28;20437;-76
2023/03/17 04:00:48;;;;;;;2.13;1.70;;;18.30;74.70;;;;;;5052370;28;20057;-75
2023/03/17 04:03:15;;;;;;;2.05;1.70;;;18.30;74.70;;;;;;5052058;28;20045;-75
2023/03/17 04:05:41;;;;;;;1.83;1.70;;;18.30;74.80;;;;;;5051966;28;20028;-75
2023/03/17 04:08:06;;;;;;;1.35;1.25;;;18.30;74.80;;;;;;5052957;28;20429;-75
2023/03/17 04:10:32;;;;;;;2.05;1.60;;;18.30;74.70;;;;;;5035657;28;20025;-75
2023/03/17 04:12:58;;;;;;;4.45;1.70;;;18.30;74.70;;;;;;5051880;28;20063;-75
2023/03/17 04:15:24;;;;;;;2.13;1.60;;;18.20;74.70;;;;;;5052086;28;20053;-75
2023/03/17 04:17:49;;;;;;;1.85;1.75;;;18.20;74.70;;;;;;5053201;28;20059;-75
2023/03/17 04:20:15;;;;;;;2.25;1.70;;;18.20;74.90;;;;;;5051972;28;20021;-76
2023/03/17 04:22:41;;;;;;;1.65;1.55;;;18.20;74.90;;;;;;5034130;28;20047;-75
2023/03/17 04:25:09;;;;;;;2.17;1.50;;;18.20;75.00;;;;;;5068306;28;20021;-75
2023/03/17 04:27:34;;;;;;;1.65;1.55;;;18.20;75.10;;;;;;5051903;28;20032;-75
2023/03/17 04:30:00;;;;;;;1.42;1.33;;;18.20;75.20;;;;;;5051254;28;20017;-75
2023/03/17 04:32:26;;;;;;;5.43;1.50;;;18.20;75.20;;;;;;5051769;28;20025;-75
2023/03/17 04:34:52;;;;;;;2.70;1.50;;;18.20;75.20;;;;;;5051341;28;20029;-75
2023/03/17 04:37:17;;;;;;;1.58;1.48;;;18.20;75.30;;;;;;5051267;28;20066;-75
2023/03/17 04:39:43;;;;;;;2.10;1.60;;;18.20;75.20;;;;;;5051372;28;20075;-75
2023/03/17 04:42:09;;;;;;;1.70;1.60;;;18.20;75.20;;;;;;5051188;28;20036;-75
2023/03/17 04:44:35;;;;;;;2.28;1.80;;;18.20;75.30;;;;;;5051519;28;20071;-75
2023/03/17 04:47:01;;;;;;;1.52;1.35;;;18.20;75.30;;;;;;5051348;28;20031;-75
2023/03/17 04:49:27;;;;;;;2.15;1.38;;;18.10;75.40;;;;;;5034625;28;20104;-75
2023/03/17 04:51:52;;;;;;;1.98;1.48;;;18.20;75.60;;;;;;5050904;28;20056;-75
2023/03/17 04:54:18;;;;;;;1.67;1.58;;;18.10;75.40;;;;;;5051463;28;20047;-75
2023/03/17 04:56:44;;;;;;;1.55;1.45;;;18.10;75.50;;;;;;5051563;28;20025;-75
2023/03/17 04:59:10;;;;;;;1.70;1.60;;;18.20;75.60;;;;;;5052411;28;20099;-75
2023/03/17 05:01:36;;;;;;;1.67;1.58;;;18.20;75.60;;;;;;5051425;28;20505;-75
2023/03/17 05:04:01;;;;;;;1.60;1.50;;;18.10;75.70;;;;;;5052780;28;20108;-75
2023/03/17 05:06:27;;;;;;;1.48;1.30;;;18.10;75.80;;;;;;5055216;28;20036;-75
2023/03/17 05:08:52;;;;;;;1.73;1.48;;;18.10;76.00;;;;;;5056733;28;20408;-75
2023/03/17 05:11:18;;;;;;;1.50;1.40;;;18.10;76.10;;;;;;5038839;28;20496;-75
2023/03/17 05:13:44;;;;;;;1.40;1.30;;;18.10;76.10;;;;;;5055302;28;20071;-75
2023/03/17 05:16:10;;;;;;;1.55;1.30;;;18.10;76.10;;;;;;5055345;28;20021;-76
2023/03/17 05:18:36;;;;;;;1.90;1.35;;;18.10;76.00;;;;;;5055352;28;20029;-75
2023/03/17 05:21:01;;;;;;;1.40;1.23;;;18.10;76.30;;;;;;5054991;28;20013;-75
2023/03/17 05:23:27;;;;;;;1.80;1.30;;;18.10;76.40;;;;;;5056427;28;20029;-75
2023/03/17 05:25:53;;;;;;;2.22;1.33;;;18.10;76.30;;;;;;5056350;28;20105;-75
2023/03/17 05:28:19;;;;;;;1.50;1.30;;;18.10;76.30;;;;;;5056237;28;20063;-75
2023/03/17 05:30:46;;;;;;;1.42;1.33;;;18.10;76.40;;;;;;5055052;28;20539;-76
2023/03/17 05:33:13;;;;;;;3.92;1.50;;;18.10;76.70;;;;;;5054866;28;20504;-76
2023/03/17 05:35:39;;;;;;;1.77;1.50;;;18.10;76.60;;;;;;5038272;28;20029;-75
2023/03/17 05:38:06;;;;;;;1.98;1.48;;;18.10;76.40;;;;;;5054762;28;20350;-75
2023/03/17 05:40:31;;;;;;;1.50;1.40;;;18.10;76.50;;;;;;5054578;28;20036;-75
2023/03/17 05:42:57;;;;;;;1.50;1.20;;;18.10;76.60;;;;;;5054737;28;20029;-75
2023/03/17 05:45:23;;;;;;;1.33;1.23;;;18.10;76.60;;;;;;5056018;28;20032;-75
2023/03/17 05:47:48;;;;;;;1.33;1.23;;;18.10;76.40;;;;;;5056178;28;20460;-75
2023/03/17 05:50:14;;;;;;;1.88;1.38;;;18.00;76.40;;;;;;5055644;28;20370;-75
2023/03/17 05:52:40;;;;;;;2.67;1.70;;;18.10;76.50;;;;;;5054752;28;20032;-75
2023/03/17 05:55:07;;;;;;;3.00;1.10;;;18.10;76.40;;;;;;5054579;28;20025;-75
2023/03/17 05:57:32;;;;;;;1.38;1.27;;;18.10;76.40;;;;;;5054677;28;20021;-75
2023/03/17 05:59:58;;;;;;;2.65;1.50;;;18.00;76.40;;;;;;5054604;28;20029;-76
2023/03/17 06:02:24;;;;;;;1.90;1.80;;;18.10;76.50;;;;;;5054630;28;20031;-75
2023/03/17 06:04:50;;;;;;;1.30;1.20;;;18.10;76.40;;;;;;5054316;28;20033;-75
2023/03/17 06:07:16;;;;;;;1.30;1.17;;;18.10;76.40;;;;;;5054291;28;20136;-75
2023/03/17 06:09:42;;;;;;;1.60;1.38;;;18.10;76.40;;;;;;5054203;28;20112;-75
2023/03/17 06:12:08;;;;;;;1.52;1.30;;;18.00;76.40;;;;;;5055561;28;20025;-75
2023/03/17 06:14:34;;;;;;;2.42;1.27;;;18.10;76.40;;;;;;5054347;28;20108;-75
2023/03/17 06:17:00;;;;;;;1.73;1.40;;;18.00;76.50;;;;;;5053298;28;20097;-75
2023/03/17 06:19:26;;;;;;;1.23;1.13;;;18.00;76.40;;;;;;5053793;28;20488;-75
2023/03/17 06:21:51;;;;;;;1.83;1.35;;;18.00;76.30;;;;;;5054181;28;20029;-75
2023/03/17 06:24:17;;;;;;;1.80;1.20;;;18.00;76.40;;;;;;5055320;28;20400;-75
2023/03/17 06:26:43;;;;;;;1.38;1.27;;;18.00;76.40;;;;;;5054057;28;20055;-75
2023/03/17 06:29:11;;;;;;;1.92;1.52;;;18.00;76.30;;;;;;5055327;28;20067;-75
2023/03/17 06:31:37;;;;;;;1.55;1.40;;;18.00;76.30;;;;;;5053899;28;20041;-75
2023/03/17 06:34:02;;;;;;;2.75;1.10;;;18.00;76.30;;;;;;5053603;28;20440;-76
2023/03/17 06:36:29;;;;;;;2.00;1.30;;;18.00;76.50;;;;;;5037184;28;20406;-76
2023/03/17 06:38:54;;;;;;;1.73;1.60;;;18.00;76.50;;;;;;5055036;28;20017;-75
2023/03/17 06:41:20;;;;;;;1.85;1.20;;;18.00;76.50;;;;;;5054698;28;20154;-76
2023/03/17 06:43:46;;;;;;;1.52;1.05;;;17.90;76.50;;;;;;5052367;28;20056;-76
2023/03/17 06:46:12;;;;;;;1.67;1.48;;;17.90;76.60;;;;;;5054194;28;20025;-75
2023/03/17 06:48:37;;;;;;;1.30;1.20;;;18.00;76.60;;;;;;5052978;28;20032;-76
2023/03/17 06:51:03;;;;;;;1.52;1.38;;;18.00;76.60;;;;;;5052930;28;20053;-76
2023/03/17 06:53:30;;;;;;;1.45;1.35;;;18.00;76.70;;;;;;5052928;28;20017;-76
2023/03/17 06:55:55;;;;;;;6.35;1.90;;;18.00;77.70;;;;;;5036272;28;20102;-75
2023/03/17 06:58:21;;;;;;;1.20;1.10;;;17.90;76.60;;;;;;5052507;28;20071;-75
2023/03/17 07:00:47;;;;;;;3.35;1.10;;;18.00;76.70;;;;;;5053124;28;20025;-74
2023/03/17 07:03:14;;;;;;;1.20;1.10;;;18.00;76.70;;;;;;5052258;28;20044;-71
2023/03/17 07:05:40;;;;;;;2.50;1.15;;;18.00;76.60;;;;;;5052621;28;20510;-72
2023/03/17 07:08:06;;;;;;;2.28;1.00;;;18.00;76.50;;;;;;5050765;28;20029;-72
2023/03/17 07:10:32;;;;;;;2.42;1.10;;;18.00;77.40;;;;;;5052605;28;20032;-71
2023/03/17 07:12:58;;;;;;;3.10;1.30;;;17.90;76.20;;;;;;5053870;28;20032;-71
2023/03/17 07:15:24;;;;;;;1.10;1.00;;;18.00;76.20;;;;;;5052349;28;20104;-71
2023/03/17 07:17:50;;;;;;;1.48;1.20;;;17.90;76.00;;;;;;5052449;28;20520;-71
2023/03/17 07:20:16;;;;;;;2.22;1.38;;;17.90;75.80;;;;;;5052455;28;20029;-71
2023/03/17 07:22:41;;;;;;;1.42;1.00;;;17.90;75.80;;;;;;5050803;28;20025;-71
2023/03/17 07:25:08;;;;;;;1.48;1.00;;;17.90;75.70;;;;;;5029913;28;20568;-71
2023/03/17 07:27:34;;;;;;;1.58;0.93;;;17.90;75.50;;;;;;5050135;28;20094;-71
2023/03/17 07:30:03;;;;;;;1.30;0.93;;;17.90;75.50;;;;;;5050215;28;20472;-71
2023/03/17 07:32:29;;;;;;;1.38;1.10;;;17.90;75.40;;;;;;5051375;28;20039;-71
2023/03/17 07:34:55;;;;;;;1.02;0.95;;;17.90;75.30;;;;;;5049654;28;20412;-71
2023/03/17 07:37:22;;;;;;;1.17;1.00;;;17.90;75.30;;;;;;5050717;28;20060;-72
2023/03/17 07:39:47;;;;;;;0.88;0.88;;;17.90;75.20;;;;;;5052087;28;20079;-72
2023/03/17 07:42:14;;;;;;;0.98;0.90;;;17.90;75.10;;;;;;5052591;28;20036;-72
2023/03/17 07:44:40;;;;;;;1.60;0.90;;;17.90;75.10;;;;;;5050653;28;20021;-72
2023/03/17 07:47:06;;;;;;;1.15;1.00;;;17.80;75.00;;;;;;5051116;28;20078;-71
2023/03/17 07:49:32;;;;;;;2.35;1.00;;;17.80;75.10;;;;;;5065997;28;20063;-71
2023/03/17 07:51:58;;;;;;;1.20;1.10;;;17.80;75.00;;;;;;5050766;28;20505;-76
2023/03/17 07:54:25;;;;;;;1.52;1.00;;;17.80;74.90;;;;;;5051143;28;20100;-75
2023/03/17 07:56:51;;;;;;;1.02;0.95;;;17.80;74.80;;;;;;5050154;28;20104;-75
2023/03/17 07:59:17;;;;;;;2.80;1.00;;;17.80;74.90;;;;;;5051922;28;20468;-75
2023/03/17 08:01:43;;;;;;;1.98;0.80;;;17.80;74.70;;;;;;5049833;28;20500;-75
2023/03/17 08:04:11;;;;;;;1.40;1.10;;;17.80;74.70;;;;;;5049857;28;20059;-75
2023/03/17 08:06:37;;;;;;;1.13;1.02;;;17.80;74.70;;;;;;5048699;28;20044;-75
2023/03/17 08:09:03;;;;;;;1.70;1.08;;;17.80;74.70;;;;;;5050693;28;20044;-75
2023/03/17 08:11:28;;;;;;;1.42;1.10;;;17.70;74.60;;;;;;5033277;28;20477;-75
2023/03/17 08:13:54;;;;;;;1.15;1.02;;;17.70;74.60;;;;;;5050545;28;20431;-75
2023/03/17 08:16:20;;;;;;;2.35;1.30;;;17.70;74.50;;;;;;5052409;28;20029;-75
2023/03/17 08:18:46;;;;;;;1.00;0.90;;;17.80;74.60;;;;;;5052848;28;20048;-75
2023/03/17 08:21:12;;;;;;;3.03;0.85;;;17.70;74.50;;;;;;5018430;28;20441;-75
2023/03/17 08:23:38;;;;;;;1.10;1.00;;;17.70;74.50;;;;;;5052308;28;20068;-75
2023/03/17 08:26:03;;;;;;;1.00;1.00;;;17.70;74.50;;;;;;5051133;28;20528;-75
2023/03/17 08:28:30;;;;;;;2.08;1.10;;;17.70;74.50;;;;;;5050834;28;20029;-75
2023/03/17 08:31:08;;;;;;;1.65;0.90;;;17.70;74.40;;;;;;5051357;28;20032;-75
2023/03/17 08:33:34;;;;;;;1.10;1.00;;;17.70;74.40;;;;;;5050948;28;20025;-75
2023/03/17 08:36:03;;;;;;;1.65;1.15;;;17.70;74.40;;;;;;5052235;28;20025;-75
2023/03/17 08:38:29;;;;;;;1.23;1.00;;;17.70;74.40;;;;;;5067851;28;20033;-75
2023/03/17 08:41:00;;;;;;;1.77;0.88;;;17.70;74.40;;;;;;5051963;28;20024;-76
2023/03/17 08:43:26;;;;;;;1.85;1.20;;;17.60;74.30;;;;;;5050769;28;20082;-75
2023/03/17 08:45:52;;;;;;;2.15;0.95;;;17.60;74.30;;;;;;5052329;28;20163;-75
2023/03/17 08:48:18;;;;;;;1.38;1.05;;;17.60;74.30;;;;;;5034403;28;20107;-75
2023/03/17 08:50:44;;;;;;;0.93;0.80;;;17.60;74.30;;;;;;5050825;28;20588;-75
2023/03/17 08:53:09;;;;;;;1.00;0.82;;;17.60;74.30;;;;;;5051002;28;20025;-76
2023/03/17 08:55:36;;;;;;;1.00;0.90;;;17.60;74.30;;;;;;5052055;28;20049;-75
2023/03/17 08:58:04;;;;;;;1.45;1.00;;;17.60;74.20;;;;;;5050856;28;20024;-75
2023/03/17 09:00:29;;;;;;;1.15;0.90;;;17.60;74.20;;;;;;5052145;28;20021;-75
2023/03/17 09:02:56;;;;;;;0.90;0.90;;;17.60;74.20;;;;;;5052088;28;20472;-75
2023/03/17 09:05:22;;;;;;;2.00;1.10;;;17.60;74.10;;;;;;5050886;28;20028;-75
2023/03/17 09:07:48;;;;;;;2.17;0.90;;;17.60;74.20;;;;;;5050603;28;20025;-75
2023/03/17 09:10:15;;;;;;;0.73;0.73;;;17.60;74.20;;;;;;5052156;28;20017;-75
2023/03/17 09:12:41;;;;;;;0.80;0.80;;;17.60;74.20;;;;;;5050491;28;20025;-75
2023/03/17 09:15:08;;;;;;;1.05;0.80;;;17.60;74.10;;;;;;5048379;28;20043;-75
2023/03/17 09:17:33;;;;;;;1.20;0.95;;;17.50;74.00;;;;;;5047284;28;20027;-75
2023/03/17 09:19:59;;;;;;;1.00;0.80;;;17.50;74.10;;;;;;5030742;28;20025;-75
2023/03/17 09:22:25;;;;;;;2.08;1.08;;;17.60;74.10;;;;;;5063957;28;20485;-75
2023/03/17 09:24:50;;;;;;;1.67;1.10;;;17.50;74.00;;;;;;5064014;28;20057;-75
2023/03/17 09:27:16;;;;;;;2.10;1.00;;;17.50;74.00;;;;;;5063568;28;20034;-75
2023/03/17 09:29:42;;;;;;;0.77;0.75;;;17.60;74.00;;;;;;5031901;28;20021;-75
2023/03/17 09:32:07;;;;;;;1.60;0.93;;;17.50;73.90;;;;;;5064105;28;20030;-75
2023/03/17 09:34:34;;;;;;;1.27;0.93;;;17.50;73.90;;;;;;5063878;28;20545;-75
2023/03/17 09:37:00;;;;;;;1.33;0.90;;;17.50;73.90;;;;;;5047330;28;20026;-75
2023/03/17 09:39:26;;;;;;;1.05;1.00;;;17.50;73.90;;;;;;5063724;28;20036;-75
2023/03/17 09:42:05;;;;;;;2.00;1.10;;;17.50;73.90;;;;;;5063588;28;20030;-75
2023/03/17 09:44:37;;;;;;;2.75;1.08;;;17.50;73.90;;;;;;5046080;28;20029;-75
2023/03/17 09:47:03;;;;;;;1.40;0.90;;;17.50;73.80;;;;;;5031784;28;20026;-75
2023/03/17 09:49:43;;;;;;;0.93;0.75;;;17.50;73.80;;;;;;5031681;28;20026;-75
2023/03/17 09:52:17;;;;;;;1.00;0.82;;;17.50;73.80;;;;;;5048481;28;20063;-75
2023/03/17 09:54:44;;;;;;;1.50;1.13;;;17.50;73.80;;;;;;5050165;28;20021;-75
2023/03/17 09:57:29;;;;;;;1.00;0.90;;;17.40;73.80;;;;;;5050341;28;20555;-75
2023/03/17 10:00:11;;;;;;;1.35;0.80;;;17.40;73.90;;;;;;5035306;28;20028;-75
2023/03/17 10:02:36;;;;;;;0.88;0.85;;;17.40;73.80;;;;;;5049740;28;20030;-75
2023/03/17 10:05:22;;;;;;;1.98;0.73;;;17.50;73.80;;;;;;5050521;28;20084;-75
2023/03/17 10:07:55;;;;;;;2.35;1.05;;;17.40;73.70;;;;;;5038544;28;20025;-75
2023/03/17 10:10:24;;;;;;;0.93;0.65;;;17.40;73.70;;;;;;5053797;28;20017;-75
2023/03/17 10:13:00;;;;;;;1.25;0.73;;;17.40;73.60;;;;;;5055085;28;20060;-75
2023/03/17 10:15:37;;;;;;;1.73;0.85;;;17.40;73.70;;;;;;5050091;28;20453;-75
2023/03/17 10:18:13;;;;;;;2.15;0.90;;;17.40;73.60;;;;;;5049756;28;20049;-75
2023/03/17 10:21:03;;;;;;;1.52;0.70;;;17.40;73.70;;;;;;5050144;28;20031;-75
2023/03/17 10:23:30;;;;;;;1.88;1.00;;;17.40;73.70;;;;;;5016849;28;20029;-75
2023/03/17 10:25:58;;;;;;;1.38;0.82;;;17.40;73.70;;;;;;5066392;28;20029;-75
2023/03/17 10:28:33;;;;;;;1.38;0.70;;;17.40;73.70;;;;;;5049781;28;20472;-75
2023/03/17 10:31:16;;;;;;;0.98;0.70;;;17.40;73.70;;;;;;5049757;28;20092;-75
2023/03/17 10:33:43;;;;;;;1.10;0.60;;;17.40;73.70;;;;;;5065570;28;20409;-75
2023/03/17 10:36:09;;;;;;;2.25;1.00;;;17.30;73.70;;;;;;5066814;28;20025;-75
2023/03/17 10:38:35;;;;;;;2.67;0.95;;;17.40;73.70;;;;;;5049388;28;20025;-75
2023/03/17 10:41:11;;;;;;;0.90;0.80;;;17.30;73.70;;;;;;5049832;28;20029;-75
2023/03/17 10:43:46;;;;;;;1.60;0.77;;;17.30;73.60;;;;;;5065816;28;20489;-75
2023/03/17 10:46:17;;;;;;;1.17;1.00;;;17.30;73.70;;;;;;5048804;28;20021;-75
2023/03/17 10:48:43;;;;;;;1.85;0.82;;;17.30;73.70;;;;;;5049629;28;20029;-75
2023/03/17 10:51:09;;;;;;;1.67;0.90;;;17.30;73.70;;;;;;5049353;28;20041;-75
2023/03/17 10:53:42;;;;;;;1.45;1.05;;;17.30;73.70;;;;;;5049395;28;20029;-75
2023/03/17 10:56:08;;;;;;;2.17;1.05;;;17.20;73.60;;;;;;5065711;28;20041;-75
2023/03/17 10:58:37;;;;;;;1.48;0.80;;;17.30;73.60;;;;;;5034183;28;20481;-75
2023/03/17 11:01:26;;;;;;;1.10;0.82;;;17.30;73.50;;;;;;5034274;28;20022;-75
2023/03/17 11:03:52;;;;;;;1.08;0.88;;;17.30;73.50;;;;;;5033194;28;20069;-75
2023/03/17 11:06:19;;;;;;;1.10;0.98;;;17.30;73.60;;;;;;5049404;28;20053;-75
2023/03/17 11:08:53;;;;;;;0.82;0.70;;;17.30;73.50;;;;;;5077107;28;20410;-75
2023/03/17 11:11:29;;;;;;;1.98;0.90;;;17.30;73.60;;;;;;5085990;28;20074;-75
2023/03/17 11:14:02;;;;;;;0.82;0.73;;;17.20;73.60;;;;;;5068789;28;20025;-75
2023/03/17 11:16:28;;;;;;;1.75;0.90;;;17.30;73.60;;;;;;5053731;28;20029;-75
2023/03/17 11:18:56;;;;;;;1.10;0.95;;;17.30;73.60;;;;;;5052479;28;20374;-75
2023/03/17 11:21:26;;;;;;;1.58;0.88;;;17.20;73.50;;;;;;5052534;28;20024;-75
2023/03/17 11:23:56;;;;;;;1.23;0.77;;;17.20;73.50;;;;;;5052172;28;20093;-75
2023/03/17 11:26:40;;;;;;;2.13;1.00;;;17.20;73.60;;;;;;5052245;28;20031;-75
2023/03/17 11:29:31;;;;;;;0.77;0.77;;;17.20;73.60;;;;;;5053513;28;20032;-75
2023/03/17 11:32:06;;;;;;;0.95;0.57;;;17.20;73.50;;;;;;5053442;28;20024;-75
2023/03/17 11:34:37;;;;;;;1.80;0.70;;;17.20;73.50;;;;;;5035480;28;20075;-75
2023/03/17 11:37:19;;;;;;;0.85;0.60;;;17.20;73.50;;;;;;5053050;28;20025;-75
2023/03/17 11:40:00;;;;;;;1.65;0.70;;;17.20;73.60;;;;;;5052197;28;20040;-75
2023/03/17 11:42:37;;;;;;;2.45;0.98;;;17.20;73.60;;;;;;5052078;28;20044;-75
2023/03/17 11:45:26;;;;;;;1.10;0.65;;;17.20;73.60;;;;;;5051984;28;20054;-75
2023/03/17 11:48:01;;;;;;;2.20;0.80;;;17.20;73.50;;;;;;5051832;28;20017;-75
2023/03/17 11:50:36;;;;;;;1.98;0.80;;;17.20;73.50;;;;;;5052842;28;20047;-75
2023/03/17 11:53:38;;;;;;;1.02;0.75;;;17.20;73.50;;;;;;5051662;28;20025;-75
2023/03/17 11:56:17;;;;;;;0.90;0.55;;;17.10;73.50;;;;;;5053069;28;20034;-75
2023/03/17 11:58:51;;;;;;;1.40;0.70;;;17.10;73.50;;;;;;5051669;28;20040;-75
2023/03/17 12:01:23;;;;;;;1.77;0.70;;;17.10;73.50;;;;;;5051715;28;20082;-75
2023/03/17 12:04:08;;;;;;;1.13;0.80;;;17.10;73.50;;;;;;5051555;28;20024;-75
2023/03/17 12:06:36;;;;;;;0.77;0.60;;;17.10;73.50;;;;;;5051628;28;20378;-75
2023/03/17 12:09:25;;;;;;;1.00;0.63;;;17.10;73.50;;;;;;5051383;28;20028;-75
2023/03/17 12:11:53;;;;;;;0.63;0.63;;;17.10;73.50;;;;;;5066583;28;20044;-75
2023/03/17 12:14:31;;;;;;;1.75;0.77;;;17.10;73.50;;;;;;5083308;28;20030;-75
2023/03/17 12:17:05;;;;;;;1.67;0.93;;;17.10;73.60;;;;;;5065386;28;20581;-75
2023/03/17 12:19:51;;;;;;;1.40;0.63;;;17.10;73.60;;;;;;5032670;28;20017;-75
2023/03/17 12:22:32;;;;;;;1.20;0.60;;;17.10;73.50;;;;;;5060623;28;20075;-75
2023/03/17 12:25:16;;;;;;;1.52;0.70;;;17.10;73.50;;;;;;5047492;28;20547;-75
2023/03/17 12:27:58;;;;;;;0.80;0.60;;;17.10;73.50;;;;;;5032447;28;20512;-75
2023/03/17 12:30:34;;;;;;;1.55;0.77;;;17.10;73.60;;;;;;5045869;28;20045;-75
2023/03/17 12:33:03;;;;;;;0.73;0.50;;;17.10;73.50;;;;;;5047087;28;20031;-75
2023/03/17 12:35:30;;;;;;;1.50;0.60;;;17.10;73.50;;;;;;5064426;28;20071;-75
2023/03/17 12:37:58;;;;;;;0.70;0.70;;;17.00;73.60;;;;;;5064240;28;20030;-75
2023/03/17 12:40:50;;;;;;;0.93;0.70;;;17.00;73.50;;;;;;5047797;28;20044;-75
2023/03/17 12:43:24;;;;;;;0.98;0.70;;;17.10;73.50;;;;;;5023987;28;20041;-75
2023/03/17 12:46:17;;;;;;;1.65;0.80;;;17.00;73.50;;;;;;5010300;28;20038;-76
2023/03/17 12:48:52;;;;;;;1.95;0.80;;;17.00;73.50;;;;;;5027004;28;20034;-76
2023/03/17 12:51:29;;;;;;;0.60;0.50;;;17.00;73.50;;;;;;5025500;28;20058;-75
2023/03/17 12:53:55;;;;;;;1.20;0.77;;;17.00;73.50;;;;;;4993975;28;20045;-75